Time;durP1;ratioP1;P1;durP2;ratioP2;P2;SDS_P1;SDS_P2;PMS_P1;PMS_P2;Temp;Humidity;BMP_temperature;BMP_pressure;BME280_temperature;BME280_humidity;BME280_pressure;Samples;Min_cycle;Max_cycle;Signal;HPM_P1;HPM_P2
2021/07/02 00:02:23;;;;;;;8.25;5.63;;;13.00;99.90;;;;;;5040804;28;20790;-83
2021/07/02 00:05:08;;;;;;;8.15;4.93;;;13.00;99.90;;;;;;5051851;27;20769;-83
2021/07/02 00:07:51;;;;;;;7.25;5.45;;;12.90;99.90;;;;;;5067745;28;20426;-84
2021/07/02 00:10:34;;;;;;;10.05;6.05;;;12.90;99.90;;;;;;5015492;27;20403;-84
2021/07/02 00:13:20;;;;;;;7.30;4.07;;;12.80;99.90;;;;;;5046291;27;20391;-83
2021/07/02 00:16:05;;;;;;;8.93;5.82;;;12.80;99.90;;;;;;5109246;27;20406;-85
2021/07/02 00:18:50;;;;;;;7.15;5.05;;;12.80;99.90;;;;;;5008713;27;20383;-84
2021/07/02 00:21:33;;;;;;;7.00;4.45;;;12.80;99.90;;;;;;5040544;27;20449;-83
2021/07/02 00:24:17;;;;;;;5.68;4.43;;;12.80;99.90;;;;;;5128746;27;20138;-81
2021/07/02 00:27:03;;;;;;;4.57;4.18;;;12.80;99.90;;;;;;5008769;27;20449;-83
2021/07/02 00:29:47;;;;;;;11.07;6.15;;;12.90;99.90;;;;;;5086262;27;20601;-84
2021/07/02 00:32:28;;;;;;;7.68;5.05;;;12.80;99.90;;;;;;5067401;27;20472;-81
2021/07/02 00:35:11;;;;;;;6.40;4.72;;;12.80;99.90;;;;;;5170877;27;20098;-82
2021/07/02 00:37:56;;;;;;;5.97;5.32;;;12.80;99.90;;;;;;5054700;27;21008;-83
2021/07/02 00:40:40;;;;;;;6.78;5.13;;;12.80;99.90;;;;;;5062567;27;20448;-82
2021/07/02 00:43:24;;;;;;;4.28;3.78;;;12.90;99.90;;;;;;5068272;27;20387;-84
2021/07/02 00:46:09;;;;;;;6.85;5.13;;;12.80;99.90;;;;;;5026318;27;20433;-85
2021/07/02 00:48:53;;;;;;;7.22;5.57;;;12.80;99.90;;;;;;5097661;27;20411;-84
2021/07/02 00:51:38;;;;;;;7.25;4.35;;;12.90;99.90;;;;;;5149629;27;20434;-83
2021/07/02 00:54:22;;;;;;;9.50;5.18;;;12.80;99.90;;;;;;5020394;27;20895;-83
2021/07/02 00:57:05;;;;;;;8.32;5.43;;;12.90;99.90;;;;;;5036715;27;20793;-83
2021/07/02 00:59:52;;;;;;;6.07;3.80;;;12.90;99.90;;;;;;5170924;27;20791;-83
2021/07/02 01:02:37;;;;;;;6.15;4.00;;;12.80;99.90;;;;;;5051567;27;1327643;-83
2021/07/02 01:05:23;;;;;;;7.13;5.90;;;12.80;99.90;;;;;;5113348;27;20125;-83
2021/07/02 01:08:08;;;;;;;5.95;4.95;;;12.80;99.90;;;;;;5067661;28;20429;-83
2021/07/02 01:10:51;;;;;;;9.75;6.28;;;12.90;99.90;;;;;;5068161;27;20129;-83
2021/07/02 01:13:38;;;;;;;7.28;5.80;;;12.90;99.90;;;;;;5039561;27;20388;-83
2021/07/02 01:16:22;;;;;;;14.05;5.82;;;12.80;99.90;;;;;;5068337;28;20418;-83
2021/07/02 01:19:07;;;;;;;7.93;5.57;;;12.90;99.90;;;;;;5067549;28;20385;-83
2021/07/02 01:21:54;;;;;;;8.52;4.78;;;12.80;99.90;;;;;;5031695;27;20515;-83
2021/07/02 01:24:42;;;;;;;20.23;9.07;;;12.90;99.90;;;;;;5065804;27;20375;-81
2021/07/02 01:27:27;;;;;;;5.22;4.50;;;12.80;99.90;;;;;;5129140;27;20483;-83
2021/07/02 01:30:16;;;;;;;4.90;4.10;;;12.80;99.90;;;;;;5024047;27;20394;-83
2021/07/02 01:33:00;;;;;;;7.10;5.93;;;12.80;99.90;;;;;;5095047;27;20414;-83
2021/07/02 01:35:46;;;;;;;6.50;5.40;;;12.80;99.90;;;;;;5067884;28;20922;-83
2021/07/02 01:38:32;;;;;;;6.18;4.20;;;12.80;99.90;;;;;;5116937;27;20133;-83
2021/07/02 01:41:15;;;;;;;6.07;3.95;;;12.80;99.90;;;;;;5049287;27;20923;-83
2021/07/02 01:44:01;;;;;;;7.55;4.30;;;12.70;99.90;;;;;;5067713;28;21202;-82
2021/07/02 01:46:46;;;;;;;6.50;4.30;;;12.80;99.90;;;;;;5010888;27;20429;-83
2021/07/02 01:49:31;;;;;;;6.95;5.30;;;12.80;99.90;;;;;;5041970;27;20394;-82
2021/07/02 01:52:13;;;;;;;5.15;4.30;;;12.80;99.90;;;;;;5067384;28;20420;-82
2021/07/02 01:54:58;;;;;;;5.97;4.95;;;12.80;99.90;;;;;;5067909;27;20410;-82
2021/07/02 01:57:43;;;;;;;5.90;5.07;;;12.80;99.90;;;;;;5107531;27;20122;-83
2021/07/02 02:00:31;;;;;;;6.55;4.40;;;12.80;99.90;;;;;;5066132;27;20913;-83
2021/07/02 02:03:22;;;;;;;7.18;4.53;;;12.80;99.90;;;;;;5129231;27;20375;-81
2021/07/02 02:06:07;;;;;;;7.22;4.50;;;12.70;99.90;;;;;;5026928;27;20457;-83
2021/07/02 02:08:55;;;;;;;7.10;4.35;;;12.80;99.90;;;;;;5120180;27;20346;-83
2021/07/02 02:11:44;;;;;;;6.88;5.90;;;12.70;99.90;;;;;;5067967;28;20509;-83
2021/07/02 02:14:32;;;;;;;6.88;5.38;;;12.80;99.90;;;;;;5094004;27;20132;-83
2021/07/02 02:17:19;;;;;;;6.85;3.83;;;12.70;99.90;;;;;;5084405;27;20885;-83
2021/07/02 02:20:10;;;;;;;13.00;4.90;;;12.70;99.90;;;;;;5129246;27;20878;-83
2021/07/02 02:22:52;;;;;;;6.95;4.55;;;12.70;99.90;;;;;;5027422;28;20401;-83
2021/07/02 02:25:39;;;;;;;6.85;5.22;;;12.70;99.90;;;;;;5057831;27;20139;-83
2021/07/02 02:28:19;;;;;;;5.43;4.93;;;12.70;99.90;;;;;;5068590;28;20729;-84
2021/07/02 02:31:03;;;;;;;7.13;5.32;;;12.60;99.90;;;;;;5009331;27;20864;-84
2021/07/02 02:33:51;;;;;;;8.40;5.47;;;12.60;99.90;;;;;;5033339;27;20399;-83
2021/07/02 02:36:36;;;;;;;6.15;4.60;;;12.60;99.90;;;;;;5105955;27;20112;-84
2021/07/02 02:39:20;;;;;;;6.68;4.43;;;12.60;99.90;;;;;;5067865;28;20391;-84
2021/07/02 02:42:01;;;;;;;5.55;4.55;;;12.60;99.90;;;;;;5028853;27;20395;-84
2021/07/02 02:44:43;;;;;;;6.10;3.75;;;12.50;99.90;;;;;;5061013;27;20379;-84
2021/07/02 02:47:29;;;;;;;4.10;3.38;;;12.60;99.90;;;;;;5068333;28;20378;-84
2021/07/02 02:50:14;;;;;;;9.38;2.65;;;12.50;99.90;;;;;;5098682;27;20121;-84
2021/07/02 02:52:58;;;;;;;5.40;3.88;;;12.50;99.90;;;;;;5054523;27;20522;-84
2021/07/02 02:55:42;;;;;;;5.05;3.78;;;12.50;99.90;;;;;;5118612;27;20121;-84
2021/07/02 02:58:24;;;;;;;5.00;4.10;;;12.50;99.90;;;;;;5020224;27;20391;-84
2021/07/02 03:01:08;;;;;;;10.15;4.60;;;12.50;99.90;;;;;;5117750;27;20122;-84
2021/07/02 03:03:50;;;;;;;6.93;5.28;;;12.50;99.90;;;;;;5170683;27;20128;-84
2021/07/02 03:06:35;;;;;;;6.50;3.72;;;12.40;99.90;;;;;;5014816;27;20406;-84
2021/07/02 03:09:20;;;;;;;4.90;4.38;;;12.50;99.90;;;;;;5093153;27;20131;-83
2021/07/02 03:12:04;;;;;;;7.35;6.38;;;12.40;99.90;;;;;;5067943;28;20830;-84
2021/07/02 03:14:52;;;;;;;7.03;4.13;;;12.40;99.90;;;;;;5069165;27;20610;-83
2021/07/02 03:17:37;;;;;;;4.68;3.95;;;12.40;99.90;;;;;;5038995;27;20386;-84
2021/07/02 03:20:23;;;;;;;5.70;5.20;;;12.40;99.90;;;;;;5068171;28;20386;-84
2021/07/02 03:23:06;;;;;;;5.40;4.10;;;12.40;99.90;;;;;;5067210;28;20625;-84
2021/07/02 03:25:51;;;;;;;5.88;4.53;;;12.40;99.90;;;;;;5056405;27;20395;-85
2021/07/02 03:28:35;;;;;;;6.10;4.15;;;12.40;99.90;;;;;;5105666;27;20119;-84
2021/07/02 03:31:20;;;;;;;5.75;3.90;;;12.40;99.90;;;;;;5068543;28;20387;-83
2021/07/02 03:34:04;;;;;;;7.18;4.00;;;12.40;99.90;;;;;;5081002;27;20122;-84
2021/07/02 03:36:49;;;;;;;8.55;4.68;;;12.40;99.90;;;;;;5104741;27;20385;-83
2021/07/02 03:39:33;;;;;;;5.70;3.75;;;12.40;99.90;;;;;;5128926;27;20394;-83
2021/07/02 03:42:20;;;;;;;11.13;5.63;;;12.30;99.90;;;;;;5021375;27;20144;-83
2021/07/02 03:45:05;;;;;;;10.52;4.40;;;12.30;99.90;;;;;;5053151;27;20433;-84
2021/07/02 03:47:51;;;;;;;5.35;4.07;;;12.30;99.90;;;;;;5068428;28;20758;-84
2021/07/02 03:50:34;;;;;;;4.38;3.30;;;12.30;99.90;;;;;;5015993;27;20390;-84
2021/07/02 03:53:16;;;;;;;7.13;3.35;;;12.40;99.90;;;;;;5047416;27;20883;-84
2021/07/02 03:55:59;;;;;;;5.57;4.10;;;12.40;99.90;;;;;;5068270;28;20500;-84
2021/07/02 03:58:43;;;;;;;5.22;4.72;;;12.40;99.90;;;;;;5090669;27;20136;-84
2021/07/02 04:01:29;;;;;;;6.47;4.72;;;12.50;99.90;;;;;;5041981;27;20437;-83
2021/07/02 04:04:12;;;;;;;4.75;3.92;;;12.50;99.90;;;;;;5068157;28;20383;-82
2021/07/02 04:06:57;;;;;;;5.10;3.30;;;12.50;99.90;;;;;;5008417;27;20395;-84
2021/07/02 04:09:42;;;;;;;6.35;5.63;;;12.50;99.90;;;;;;5077043;27;20128;-84
2021/07/02 04:12:25;;;;;;;4.13;3.72;;;12.60;99.90;;;;;;5129416;27;20261;-84
2021/07/02 04:15:08;;;;;;;17.60;4.38;;;12.60;99.90;;;;;;5068416;28;20367;-83
2021/07/02 04:17:52;;;;;;;4.43;3.90;;;12.60;99.90;;;;;;5032733;27;20395;-84
2021/07/02 04:20:37;;;;;;;4.03;3.38;;;12.70;99.90;;;;;;5064712;27;20425;-84
2021/07/02 04:23:23;;;;;;;6.60;3.70;;;12.70;99.90;;;;;;5067442;28;20493;-84
2021/07/02 04:26:05;;;;;;;5.28;3.75;;;12.70;99.90;;;;;;5027773;27;20398;-84
2021/07/02 04:28:50;;;;;;;6.75;3.53;;;12.70;99.90;;;;;;5057941;27;20391;-83
2021/07/02 04:31:33;;;;;;;6.05;3.95;;;12.70;99.90;;;;;;5068403;28;20448;-84
2021/07/02 04:34:18;;;;;;;6.40;3.53;;;12.70;99.90;;;;;;5122785;27;20314;-84
2021/07/02 04:37:02;;;;;;;4.55;4.10;;;12.70;99.90;;;;;;5062419;27;20881;-83
2021/07/02 04:39:50;;;;;;;4.65;2.92;;;12.80;99.90;;;;;;5170439;27;19923;-80
2021/07/02 04:42:34;;;;;;;6.05;3.53;;;12.90;99.90;;;;;;5052678;27;1327924;-80
2021/07/02 04:45:18;;;;;;;7.10;3.88;;;12.90;99.90;;;;;;5046346;27;20437;-85
2021/07/02 04:48:04;;;;;;;4.63;3.70;;;13.00;99.90;;;;;;5068202;28;20485;-82
2021/07/02 04:50:48;;;;;;;4.60;3.00;;;13.00;99.90;;;;;;5010059;27;20391;-81
2021/07/02 04:53:30;;;;;;;5.82;4.57;;;13.10;99.90;;;;;;5123152;27;20401;-83
2021/07/02 04:56:30;;;;;;;4.55;3.35;;;13.10;99.90;;;;;;5116709;27;20422;-85
2021/07/02 04:59:16;;;;;;;5.88;4.05;;;13.20;99.90;;;;;;5068232;28;20879;-82
2021/07/02 05:01:59;;;;;;;5.82;5.22;;;13.20;99.90;;;;;;5130910;27;20121;-79
2021/07/02 05:04:43;;;;;;;7.45;4.95;;;13.20;99.90;;;;;;5124197;27;20446;-80
2021/07/02 05:07:29;;;;;;;5.43;4.75;;;13.20;99.90;;;;;;5067763;28;20441;-82
2021/07/02 05:10:14;;;;;;;4.45;3.85;;;13.30;99.90;;;;;;5023474;27;20453;-79
2021/07/02 05:13:05;;;;;;;5.97;4.95;;;13.40;99.90;;;;;;5032769;27;21023;-81
2021/07/02 05:15:49;;;;;;;5.35;4.47;;;13.40;99.90;;;;;;5068451;28;20383;-80
2021/07/02 05:18:36;;;;;;;6.80;4.80;;;13.50;99.90;;;;;;5014864;27;20184;-80
2021/07/02 05:21:20;;;;;;;8.52;4.45;;;13.40;99.90;;;;;;5147994;27;20121;-86
2021/07/02 05:24:03;;;;;;;5.57;4.63;;;13.40;99.90;;;;;;5087479;28;20106;-83
2021/07/02 05:26:48;;;;;;;7.65;4.07;;;13.50;99.90;;;;;;5094265;23;20770;-83
2021/07/02 05:29:37;;;;;;;5.72;3.78;;;13.50;99.90;;;;;;5040391;27;20395;-86
2021/07/02 05:32:35;;;;;;;4.90;3.95;;;13.50;99.90;;;;;;5106259;27;20430;-87
2021/07/02 05:35:39;;;;;;;7.18;5.40;;;13.50;99.90;;;;;;5062959;28;20373;-88
2021/07/02 05:38:28;;;;;;;5.53;3.70;;;13.60;99.90;;;;;;5032820;27;20885;-88
2021/07/02 05:41:12;;;;;;;5.28;4.05;;;13.60;99.90;;;;;;5149152;27;20443;-87
2021/07/02 05:44:00;;;;;;;6.03;5.15;;;13.60;99.90;;;;;;5107119;27;20414;-88
2021/07/02 05:46:45;;;;;;;5.40;4.90;;;13.60;99.90;;;;;;5108086;27;20125;-87
2021/07/02 05:49:37;;;;;;;5.50;4.28;;;13.70;99.90;;;;;;5106916;27;20397;-88
2021/07/02 05:52:24;;;;;;;5.18;4.35;;;13.70;99.90;;;;;;5105796;27;20113;-85
2021/07/02 05:55:09;;;;;;;7.35;5.60;;;13.70;99.90;;;;;;5064712;27;20981;-87
2021/07/02 05:57:53;;;;;;;7.70;4.93;;;13.80;99.90;;;;;;5081243;27;20940;-88
2021/07/02 06:00:41;;;;;;;6.05;5.32;;;13.80;99.90;;;;;;5080406;27;20542;-88
2021/07/02 06:03:25;;;;;;;5.38;4.90;;;13.90;99.90;;;;;;5146038;27;20381;-87
2021/07/02 06:06:29;;;;;;;4.35;3.33;;;13.90;99.90;;;;;;5050441;27;20440;-86
2021/07/02 06:09:12;;;;;;;9.23;5.83;;;14.00;99.90;;;;;;4985954;27;3363021;-86
2021/07/02 06:11:57;;;;;;;6.82;3.55;;;14.10;99.90;;;;;;5055645;28;20470;-87
2021/07/02 06:14:41;;;;;;;4.20;3.80;;;14.10;99.90;;;;;;5012642;27;20383;-85
2021/07/02 06:17:31;;;;;;;3.70;3.28;;;14.20;99.90;;;;;;5041613;27;20395;-84
2021/07/02 06:20:26;;;;;;;;;;;;;;;;;;;;;
2021/07/02 06:23:16;;;;;;;5.93;5.30;;;14.20;99.90;;;;;;5109890;27;20303;-90
2021/07/02 06:26:05;;;;;;;9.10;5.22;;;14.30;99.90;;;;;;5108270;27;20451;-85
2021/07/02 06:28:51;;;;;;;7.88;4.65;;;14.40;99.90;;;;;;5128448;27;20556;-88
2021/07/02 06:31:40;;;;;;;5.68;4.00;;;14.40;99.90;;;;;;5129016;27;20584;-85
2021/07/02 06:34:24;;;;;;;8.07;4.57;;;14.40;99.90;;;;;;5043656;27;20388;-85
2021/07/02 06:37:07;;;;;;;3.92;3.20;;;14.50;99.90;;;;;;5115617;27;20381;-88
2021/07/02 06:39:56;;;;;;;5.78;3.90;;;14.50;99.90;;;;;;5067823;28;20756;-88
2021/07/02 06:42:45;;;;;;;6.55;5.50;;;14.60;99.90;;;;;;5070925;27;20893;-88
2021/07/02 06:45:28;;;;;;;5.00;3.88;;;14.80;99.90;;;;;;5098186;27;20932;-87
2021/07/02 06:48:13;;;;;;;6.50;4.30;;;14.90;99.90;;;;;;5128040;27;20383;-86
2021/07/02 06:51:04;;;;;;;4.55;3.70;;;15.00;99.90;;;;;;5064631;28;20412;-88
2021/07/02 06:53:51;;;;;;;4.32;3.28;;;14.90;99.90;;;;;;5094552;27;20701;-87
2021/07/02 06:56:33;;;;;;;7.28;4.15;;;14.90;99.90;;;;;;4868199;27;6686016;-87
2021/07/02 06:59:16;;;;;;;6.45;5.03;;;14.90;99.90;;;;;;5068427;28;20381;-88
2021/07/02 07:02:00;;;;;;;6.20;4.45;;;14.90;99.90;;;;;;5116058;27;20417;-89
2021/07/02 07:04:49;;;;;;;8.38;4.25;;;14.90;99.90;;;;;;5067202;27;20764;-88
2021/07/02 07:07:38;;;;;;;4.38;3.70;;;14.90;99.90;;;;;;5129183;27;21156;-86
2021/07/02 07:10:32;;;;;;;4.57;3.83;;;15.00;99.90;;;;;;5093977;27;20118;-88
2021/07/02 07:13:18;;;;;;;6.93;4.90;;;15.00;99.90;;;;;;5094033;27;20398;-86
2021/07/02 07:16:04;;;;;;;6.00;4.05;;;15.10;99.90;;;;;;5068390;28;20850;-88
2021/07/02 07:18:46;;;;;;;4.18;3.28;;;15.10;99.90;;;;;;5111255;27;20147;-88
2021/07/02 07:21:32;;;;;;;4.90;3.88;;;15.20;99.90;;;;;;5040866;27;20799;-90
2021/07/02 07:24:19;;;;;;;7.53;4.97;;;15.20;99.90;;;;;;5068619;28;20176;-86
2021/07/02 07:27:05;;;;;;;7.03;5.20;;;15.20;99.90;;;;;;5082863;27;1360061;-87
2021/07/02 07:29:50;;;;;;;6.85;5.35;;;15.20;99.90;;;;;;5105638;27;20593;-89
2021/07/02 07:32:38;;;;;;;8.98;5.00;;;15.30;99.90;;;;;;5166562;27;20579;-80
2021/07/02 07:35:30;;;;;;;6.40;4.07;;;15.30;99.90;;;;;;5067652;28;20798;-80
2021/07/02 07:38:15;;;;;;;6.68;4.55;;;15.30;99.90;;;;;;5051482;27;20796;-80
2021/07/02 07:40:57;;;;;;;7.10;5.00;;;15.30;99.90;;;;;;5055363;27;20391;-81
2021/07/02 07:43:39;;;;;;;6.70;3.45;;;15.30;99.90;;;;;;4975922;27;2188414;-81
2021/07/02 07:46:24;;;;;;;5.10;4.55;;;15.20;99.90;;;;;;5051849;28;20430;-81
2021/07/02 07:49:19;;;;;;;7.10;4.25;;;15.30;99.90;;;;;;5046311;27;20398;-89
2021/07/02 07:52:58;;;;;;;9.68;5.22;;;15.30;99.90;;;;;;5112631;27;20435;-86
2021/07/02 07:56:02;;;;;;;8.05;4.82;;;15.20;99.90;;;;;;5087594;27;20390;-89
2021/07/02 07:59:26;;;;;;;4.47;4.07;;;15.10;99.90;;;;;;4827298;27;8107739;-88
2021/07/02 08:02:45;;;;;;;9.55;5.63;;;15.20;99.90;;;;;;5069332;27;1383367;-89
2021/07/02 08:06:09;;;;;;;5.50;4.97;;;15.20;99.90;;;;;;5084130;27;20399;-82
2021/07/02 08:09:03;;;;;;;6.03;5.43;;;15.20;99.90;;;;;;5077342;28;20783;-82
2021/07/02 08:11:48;;;;;;;10.50;6.75;;;15.30;99.90;;;;;;5066325;28;20390;-81
2021/07/02 08:14:31;;;;;;;8.43;4.50;;;15.30;99.90;;;;;;5015598;27;20477;-81
2021/07/02 08:17:14;;;;;;;6.03;4.53;;;15.50;99.90;;;;;;5045902;27;20390;-81
2021/07/02 08:20:02;;;;;;;7.63;4.05;;;15.70;99.90;;;;;;5065569;28;20766;-81
2021/07/02 08:22:48;;;;;;;5.88;4.38;;;15.60;99.90;;;;;;5006764;27;20406;-81
2021/07/02 08:25:33;;;;;;;8.15;4.60;;;15.70;99.90;;;;;;5039297;27;20407;-81
2021/07/02 08:31:05;;;;;;;5.18;4.60;;;15.80;99.90;;;;;;5006467;27;20437;-81
2021/07/02 08:33:50;;;;;;;6.03;3.70;;;15.80;99.90;;;;;;5103889;27;20132;-80
2021/07/02 08:36:35;;;;;;;5.13;3.47;;;15.80;99.90;;;;;;5103130;27;20876;-80
2021/07/02 08:39:18;;;;;;;8.73;3.78;;;15.70;99.90;;;;;;5065429;28;20763;-80
2021/07/02 08:42:05;;;;;;;5.53;3.30;;;15.80;99.90;;;;;;5026080;27;20395;-81
2021/07/02 08:44:49;;;;;;;5.57;4.60;;;16.00;99.90;;;;;;5098502;27;20121;-81
2021/07/02 08:47:33;;;;;;;8.90;3.80;;;16.00;99.90;;;;;;5106130;27;20400;-80
2021/07/02 08:50:19;;;;;;;5.55;3.78;;;15.90;99.90;;;;;;5021613;27;20398;-81
2021/07/02 08:53:06;;;;;;;6.50;4.13;;;15.80;99.90;;;;;;5094627;27;20129;-81
2021/07/02 08:55:52;;;;;;;4.93;3.40;;;15.80;99.90;;;;;;5060111;28;20787;-81
2021/07/02 08:58:37;;;;;;;5.95;4.05;;;15.80;99.90;;;;;;5013476;27;20398;-81
2021/07/02 09:01:40;;;;;;;4.85;3.67;;;15.80;99.90;;;;;;5051176;27;20432;-80
2021/07/02 09:04:34;;;;;;;3.90;3.50;;;15.80;99.90;;;;;;5127464;27;20118;-80
2021/07/02 09:07:21;;;;;;;5.45;3.58;;;16.00;99.90;;;;;;5065489;28;20165;-80
2021/07/02 09:10:06;;;;;;;5.00;4.05;;;15.90;99.90;;;;;;5050805;27;20131;-79
2021/07/02 09:12:52;;;;;;;8.48;4.43;;;16.00;99.90;;;;;;5120283;27;20116;-80
2021/07/02 09:15:47;;;;;;;7.00;5.88;;;15.90;99.90;;;;;;5040979;27;2062949;-80
2021/07/02 09:18:36;;;;;;;6.38;3.58;;;15.90;99.90;;;;;;5016933;27;20390;-80
2021/07/02 09:21:25;;;;;;;6.70;4.43;;;15.80;99.90;;;;;;5047107;27;20387;-80
2021/07/02 09:24:38;;;;;;;5.82;3.15;;;15.90;99.90;;;;;;5067522;28;20436;-80
2021/07/02 09:27:23;;;;;;;4.78;4.07;;;16.00;99.90;;;;;;5068247;28;20440;-79
2021/07/02 09:30:16;;;;;;;5.22;4.43;;;16.00;99.90;;;;;;5100162;27;20348;-81
2021/07/02 09:33:11;;;;;;;4.57;4.13;;;16.10;99.90;;;;;;5123659;27;20128;-80
2021/07/02 09:35:59;;;;;;;6.47;4.97;;;16.20;99.90;;;;;;5068782;28;20375;-80
2021/07/02 09:38:48;;;;;;;7.13;4.50;;;16.30;99.90;;;;;;5010566;27;20441;-80
2021/07/02 09:41:34;;;;;;;7.75;4.85;;;16.40;99.90;;;;;;5089297;27;20428;-80
2021/07/02 09:44:20;;;;;;;4.50;3.75;;;16.40;99.90;;;;;;5068154;28;20413;-81
2021/07/02 09:47:29;;;;;;;6.00;5.10;;;16.20;99.90;;;;;;5048270;28;20392;-79
2021/07/02 09:50:15;;;;;;;9.68;4.60;;;16.60;99.90;;;;;;5010084;28;20043;-79
2021/07/02 09:53:02;;;;;;;6.22;4.65;;;17.00;99.90;;;;;;4986855;28;20415;-79
2021/07/02 09:55:35;;;;;;;4.72;3.92;;;17.20;99.90;;;;;;4968611;28;20065;-78
2021/07/02 09:58:09;;;;;;;6.30;4.57;;;17.60;99.90;;;;;;4967921;28;20054;-77
2021/07/02 10:00:51;;;;;;;6.10;5.05;;;17.40;99.90;;;;;;4968416;28;20055;-78
2021/07/02 10:03:24;;;;;;;6.65;5.35;;;17.20;99.90;;;;;;4969111;28;20051;-78
2021/07/02 10:05:58;;;;;;;6.18;4.82;;;17.10;99.90;;;;;;4967628;28;20054;-77
2021/07/02 10:08:45;;;;;;;5.63;3.47;;;16.90;99.90;;;;;;4971553;28;20054;-80
2021/07/02 10:11:17;;;;;;;9.00;4.20;;;16.70;99.90;;;;;;5034633;28;20045;-79
2021/07/02 10:13:51;;;;;;;6.65;5.25;;;16.60;99.90;;;;;;5021507;28;20041;-79
2021/07/02 10:16:19;;;;;;;4.55;3.63;;;16.70;99.90;;;;;;5027958;28;20054;-81
2021/07/02 10:19:06;;;;;;;10.15;4.97;;;16.90;99.90;;;;;;4973714;28;20077;-79
2021/07/02 10:21:34;;;;;;;5.63;3.72;;;17.30;99.90;;;;;;4967317;28;20065;-79
2021/07/02 10:24:04;;;;;;;6.53;4.43;;;17.20;99.90;;;;;;4967048;28;20062;-79
2021/07/02 10:26:36;;;;;;;6.05;4.13;;;17.10;99.90;;;;;;5001950;28;20042;-77
2021/07/02 10:29:06;;;;;;;6.25;5.35;;;17.00;99.90;;;;;;5006012;28;20395;-78
2021/07/02 10:31:34;;;;;;;5.85;4.22;;;16.90;99.90;;;;;;5006964;28;20109;-79
2021/07/02 10:34:04;;;;;;;5.88;3.67;;;16.90;99.90;;;;;;4992282;28;20039;-78
2021/07/02 10:36:35;;;;;;;5.20;3.40;;;16.90;99.90;;;;;;4987585;28;20061;-81
2021/07/02 10:39:03;;;;;;;4.55;3.83;;;17.20;99.90;;;;;;4985288;28;20050;-81
2021/07/02 10:41:32;;;;;;;4.82;3.63;;;17.50;99.90;;;;;;4974039;28;20050;-81
2021/07/02 10:44:07;;;;;;;6.10;3.83;;;17.70;99.90;;;;;;5005764;28;20042;-79
2021/07/02 10:47:02;;;;;;;5.22;3.92;;;17.80;99.90;;;;;;5000227;28;20050;-79
2021/07/02 10:49:38;;;;;;;5.07;3.72;;;17.90;99.90;;;;;;5006028;28;20053;-77
2021/07/02 10:52:21;;;;;;;5.60;4.38;;;18.00;99.90;;;;;;5011985;28;20482;-80
2021/07/02 10:54:50;;;;;;;4.30;3.83;;;17.90;99.90;;;;;;5046119;28;20041;-79
2021/07/02 10:57:20;;;;;;;4.20;3.25;;;17.80;99.90;;;;;;5002624;28;20046;-79
2021/07/02 10:59:52;;;;;;;4.32;2.83;;;17.80;99.90;;;;;;4997523;28;20050;-79
2021/07/02 11:02:27;;;;;;;4.57;3.85;;;18.10;99.90;;;;;;5011661;28;20045;-77
2021/07/02 11:04:56;;;;;;;3.58;3.28;;;18.50;99.90;;;;;;5012493;28;20046;-78
2021/07/02 11:07:27;;;;;;;3.72;2.85;;;18.60;99.90;;;;;;4999148;28;20049;-78
2021/07/02 11:09:56;;;;;;;;;;;18.70;99.90;;;;;;5031561;28;20049;-78
2021/07/02 11:12:35;;;;;;;5.30;3.70;;;18.90;99.90;;;;;;5032269;28;19947;-78
2021/07/02 11:15:05;;;;;;;5.40;3.10;;;18.70;99.90;;;;;;5002609;28;20050;-77
2021/07/02 11:17:44;;;;;;;4.57;3.05;;;18.30;99.90;;;;;;5007539;28;20038;-79
2021/07/02 11:20:21;;;;;;;3.25;2.95;;;18.00;99.90;;;;;;5013232;28;20053;-81
2021/07/02 11:22:48;;;;;;;4.03;2.65;;;18.00;99.90;;;;;;5012124;28;20041;-79
2021/07/02 11:25:35;;;;;;;3.45;3.15;;;18.40;99.90;;;;;;5012446;28;20038;-83
2021/07/02 11:28:09;;;;;;;4.35;3.55;;;18.50;99.90;;;;;;5030437;28;20041;-87
2021/07/02 11:30:39;;;;;;;5.53;3.35;;;18.30;99.90;;;;;;5013908;28;20050;-85
2021/07/02 11:33:11;;;;;;;3.05;2.60;;;18.20;99.90;;;;;;5026228;28;20045;-83
2021/07/02 11:35:47;;;;;;;5.85;3.60;;;18.20;99.90;;;;;;5012875;28;20477;-85
2021/07/02 11:38:23;;;;;;;4.68;3.47;;;18.50;99.90;;;;;;5011826;28;20046;-83
2021/07/02 11:40:52;;;;;;;3.85;3.25;;;18.80;99.90;;;;;;5012457;28;20496;-85
2021/07/02 11:43:30;;;;;;;5.60;3.17;;;18.50;99.90;;;;;;5012349;28;20053;-87
2021/07/02 11:46:19;;;;;;;4.15;3.03;;;18.70;99.90;;;;;;5012393;28;20054;-86
2021/07/02 11:48:51;;;;;;;;;;;18.80;99.90;;;;;;4975814;28;20050;-85
2021/07/02 11:51:25;;;;;;;5.00;4.55;;;18.50;99.90;;;;;;4999048;28;19925;-85
2021/07/02 11:54:05;;;;;;;5.95;4.10;;;18.40;99.90;;;;;;5011675;28;20046;-86
2021/07/02 11:56:35;;;;;;;4.15;2.75;;;18.30;99.90;;;;;;5010803;28;20052;-82
2021/07/02 11:59:06;;;;;;;4.28;3.50;;;18.40;99.90;;;;;;4975665;28;20046;-83
2021/07/02 12:01:38;;;;;;;4.75;4.03;;;18.60;99.90;;;;;;4992426;28;20055;-79
2021/07/02 12:04:34;;;;;;;4.82;3.33;;;18.80;99.90;;;;;;4991038;28;20050;-80
2021/07/02 12:07:08;;;;;;;4.63;3.90;;;18.60;99.90;;;;;;5005775;28;20404;-79
2021/07/02 12:09:42;;;;;;;5.20;3.50;;;18.50;99.90;;;;;;4991245;28;20650;-78
2021/07/02 12:12:19;;;;;;;6.53;2.78;;;18.40;99.90;;;;;;4982855;28;20058;-79
2021/07/02 12:14:47;;;;;;;4.97;3.83;;;18.20;99.90;;;;;;5010614;28;20050;-78
2021/07/02 12:17:18;;;;;;;4.72;4.03;;;18.20;99.90;;;;;;5009119;28;20049;-79
2021/07/02 12:19:46;;;;;;;6.47;2.85;;;18.40;99.90;;;;;;4995335;28;20046;-78
2021/07/02 12:22:14;;;;;;;3.60;3.13;;;18.80;99.90;;;;;;5003432;28;20157;-81
2021/07/02 12:24:45;;;;;;;6.72;4.70;;;19.10;99.90;;;;;;4992024;28;20057;-79
2021/07/02 12:27:19;;;;;;;11.57;6.20;;;19.00;99.90;;;;;;4992695;28;20050;-80
2021/07/02 12:29:52;;;;;;;4.85;2.33;;;18.60;99.90;;;;;;4992037;28;20050;-79
2021/07/02 12:32:23;;;;;;;5.30;2.15;;;18.30;99.90;;;;;;4992553;28;20049;-80
2021/07/02 12:34:52;;;;;;;3.30;2.47;;;18.20;99.90;;;;;;4992053;28;20122;-78
2021/07/02 12:37:23;;;;;;;3.05;2.35;;;18.60;99.90;;;;;;4991675;28;20048;-79
2021/07/02 12:39:56;;;;;;;3.72;3.00;;;19.00;99.90;;;;;;4990260;28;20046;-81
2021/07/02 12:42:37;;;;;;;2.97;2.28;;;19.20;99.90;;;;;;4989768;28;20518;-78
2021/07/02 12:45:11;;;;;;;2.72;2.53;;;19.20;99.90;;;;;;4990023;28;20054;-80
2021/07/02 12:47:41;;;;;;;4.07;2.63;;;19.30;99.90;;;;;;4990905;28;20046;-78
2021/07/02 12:50:16;;;;;;;3.90;2.30;;;19.50;99.70;;;;;;4991749;28;20053;-80
2021/07/02 12:55:42;;;;;;;4.43;2.45;;;19.20;99.90;;;;;;4987210;28;20083;-79
2021/07/02 12:58:09;;;;;;;2.70;2.13;;;19.10;99.90;;;;;;4972369;28;20043;-80
2021/07/02 13:00:37;;;;;;;3.95;2.28;;;19.40;99.90;;;;;;4971849;28;20055;-78
2021/07/02 13:03:06;;;;;;;6.18;2.40;;;19.70;99.90;;;;;;4954582;28;20050;-79
2021/07/02 13:05:36;;;;;;;3.70;2.42;;;19.70;99.30;;;;;;4994257;28;20050;-79
2021/07/02 13:08:12;;;;;;;3.25;2.13;;;19.80;99.90;;;;;;5009752;28;20088;-79
2021/07/02 13:10:44;;;;;;;3.92;2.78;;;20.00;99.90;;;;;;5011147;28;20490;-82
2021/07/02 13:13:22;;;;;;;4.80;2.65;;;19.90;99.90;;;;;;5011077;28;20046;-79
2021/07/02 13:15:51;;;;;;;4.28;2.53;;;19.90;99.90;;;;;;5010079;28;20045;-79
2021/07/02 13:18:27;;;;;;;6.28;3.58;;;19.90;99.90;;;;;;5008582;28;20049;-78
2021/07/02 13:21:02;;;;;;;2.88;2.25;;;19.90;99.90;;;;;;5010896;28;20372;-78
2021/07/02 13:23:33;;;;;;;3.72;2.90;;;20.00;99.90;;;;;;5009160;28;20046;-80
2021/07/02 13:26:04;;;;;;;5.43;2.75;;;20.10;99.90;;;;;;5010714;28;20058;-77
2021/07/02 13:28:39;;;;;;;3.72;3.00;;;20.10;98.50;;;;;;5010881;28;20050;-80
2021/07/02 13:31:22;;;;;;;4.22;2.85;;;19.80;98.10;;;;;;4993216;28;20774;-81
2021/07/02 13:34:11;;;;;;;3.17;2.13;;;19.80;99.80;;;;;;4978061;28;20051;-82
2021/07/02 13:36:49;;;;;;;2.92;2.40;;;19.80;99.00;;;;;;4974618;28;20050;-80
2021/07/02 13:39:19;;;;;;;3.05;2.38;;;19.80;99.90;;;;;;4991165;28;20062;-80
2021/07/02 13:42:04;;;;;;;2.65;2.13;;;19.90;99.20;;;;;;4990984;28;20058;-78
2021/07/02 13:44:34;;;;;;;5.28;3.33;;;19.80;99.60;;;;;;4991319;28;20046;-80
2021/07/02 13:47:13;;;;;;;2.47;2.28;;;19.80;99.90;;;;;;4991158;28;20051;-82
2021/07/02 13:49:42;;;;;;;4.47;3.05;;;19.90;99.90;;;;;;4973390;28;20050;-79
2021/07/02 13:52:11;;;;;;;5.32;3.03;;;19.90;99.90;;;;;;4991286;28;20483;-80
2021/07/02 13:54:40;;;;;;;3.65;2.63;;;19.90;99.90;;;;;;4989353;28;20050;-80
2021/07/02 13:57:07;;;;;;;5.15;2.85;;;19.90;99.90;;;;;;4991032;28;20058;-79
2021/07/02 13:59:37;;;;;;;6.20;3.25;;;20.20;99.90;;;;;;4991284;28;20043;-80
2021/07/02 14:02:05;;;;;;;3.97;3.60;;;19.80;99.90;;;;;;4990909;28;20042;-80
2021/07/02 14:04:33;;;;;;;3.38;2.90;;;19.70;99.90;;;;;;4989277;28;20042;-79
2021/07/02 14:07:01;;;;;;;2.92;2.67;;;20.00;99.90;;;;;;4991142;28;20046;-81
2021/07/02 14:09:29;;;;;;;2.20;1.80;;;20.00;99.90;;;;;;4989472;28;20054;-80
2021/07/02 14:11:57;;;;;;;6.25;2.90;;;20.10;99.70;;;;;;4990809;28;20046;-78
2021/07/02 14:14:25;;;;;;;6.32;3.08;;;20.20;99.80;;;;;;4989429;28;20050;-80